sensor_id;sensor_type;location;lat;lon;timestamp;temperature;humidity
11961;DHT22;6040;49.358;11.140;2023-07-13T00:00:37;20.20;99.90
11961;DHT22;6040;49.358;11.140;2023-07-13T00:03:04;20.20;99.90
11961;DHT22;6040;49.358;11.140;2023-07-13T00:05:31;20.20;99.90
11961;DHT22;6040;49.358;11.140;2023-07-13T00:07:59;20.20;99.90
11961;DHT22;6040;49.358;11.140;2023-07-13T00:10:26;20.20;99.90
11961;DHT22;6040;49.358;11.140;2023-07-13T00:12:53;20.20;99.90
11961;DHT22;6040;49.358;11.140;2023-07-13T00:15:25;20.30;99.90
11961;DHT22;6040;49.358;11.140;2023-07-13T00:17:53;20.20;99.90
11961;DHT22;6040;49.358;11.140;2023-07-13T00:20:21;20.30;99.90
11961;DHT22;6040;49.358;11.140;2023-07-13T00:22:49;20.30;99.90
11961;DHT22;6040;49.358;11.140;2023-07-13T00:25:18;20.30;99.90
11961;DHT22;6040;49.358;11.140;2023-07-13T00:27:47;20.30;99.90
11961;DHT22;6040;49.358;11.140;2023-07-13T00:30:15;20.30;99.90
11961;DHT22;6040;49.358;11.140;2023-07-13T00:32:42;20.40;99.90
11961;DHT22;6040;49.358;11.140;2023-07-13T00:35:09;20.30;99.90
11961;DHT22;6040;49.358;11.140;2023-07-13T00:37:36;20.30;99.90
11961;DHT22;6040;49.358;11.140;2023-07-13T00:40:04;20.30;99.90
11961;DHT22;6040;49.358;11.140;2023-07-13T00:42:33;20.30;99.90
11961;DHT22;6040;49.358;11.140;2023-07-13T00:45:05;20.30;99.90
11961;DHT22;6040;49.358;11.140;2023-07-13T00:47:32;20.30;99.90
11961;DHT22;6040;49.358;11.140;2023-07-13T00:49:59;20.30;99.90
11961;DHT22;6040;49.358;11.140;2023-07-13T00:52:26;20.30;99.90
11961;DHT22;6040;49.358;11.140;2023-07-13T00:54:54;20.40;99.90
11961;DHT22;6040;49.358;11.140;2023-07-13T00:57:23;20.40;99.90
11961;DHT22;6040;49.358;11.140;2023-07-13T00:59:55;20.40;99.90
11961;DHT22;6040;49.358;11.140;2023-07-13T01:02:23;20.40;99.90
11961;DHT22;6040;49.358;11.140;2023-07-13T01:04:50;20.40;99.90
11961;DHT22;6040;49.358;11.140;2023-07-13T01:07:18;20.30;99.90
11961;DHT22;6040;49.358;11.140;2023-07-13T01:09:45;20.30;99.90
11961;DHT22;6040;49.358;11.140;2023-07-13T01:12:12;20.30;99.90
11961;DHT22;6040;49.358;11.140;2023-07-13T01:14:39;20.20;99.90
11961;DHT22;6040;49.358;11.140;2023-07-13T01:17:10;20.10;99.90
11961;DHT22;6040;49.358;11.140;2023-07-13T01:19:39;20.10;99.90
11961;DHT22;6040;49.358;11.140;2023-07-13T01:22:09;20.10;99.90
11961;DHT22;6040;49.358;11.140;2023-07-13T01:24:37;20.10;99.90
11961;DHT22;6040;49.358;11.140;2023-07-13T01:27:07;20.00;99.90
11961;DHT22;6040;49.358;11.140;2023-07-13T01:29:36;20.00;99.90
11961;DHT22;6040;49.358;11.140;2023-07-13T01:32:08;20.00;99.90
11961;DHT22;6040;49.358;11.140;2023-07-13T01:34:35;19.90;99.90
11961;DHT22;6040;49.358;11.140;2023-07-13T01:37:04;19.90;99.90
11961;DHT22;6040;49.358;11.140;2023-07-13T01:39:32;19.90;99.90
11961;DHT22;6040;49.358;11.140;2023-07-13T01:41:59;19.90;99.90
11961;DHT22;6040;49.358;11.140;2023-07-13T01:44:26;20.00;99.90
11961;DHT22;6040;49.358;11.140;2023-07-13T01:46:53;19.80;99.90
11961;DHT22;6040;49.358;11.140;2023-07-13T01:49:20;19.80;99.90
11961;DHT22;6040;49.358;11.140;2023-07-13T01:51:47;19.80;99.90
11961;DHT22;6040;49.358;11.140;2023-07-13T01:54:13;19.70;99.90
11961;DHT22;6040;49.358;11.140;2023-07-13T01:56:42;19.60;99.90
11961;DHT22;6040;49.358;11.140;2023-07-13T01:59:09;19.60;99.90
11961;DHT22;6040;49.358;11.140;2023-07-13T02:01:36;19.50;99.90
11961;DHT22;6040;49.358;11.140;2023-07-13T02:04:03;19.50;99.90
11961;DHT22;6040;49.358;11.140;2023-07-13T02:06:30;19.40;99.90
11961;DHT22;6040;49.358;11.140;2023-07-13T02:08:58;19.40;99.90
11961;DHT22;6040;49.358;11.140;2023-07-13T02:11:24;19.30;99.90
11961;DHT22;6040;49.358;11.140;2023-07-13T02:13:59;19.30;99.90
11961;DHT22;6040;49.358;11.140;2023-07-13T02:16:26;19.20;99.90
11961;DHT22;6040;49.358;11.140;2023-07-13T02:18:53;19.10;99.90
11961;DHT22;6040;49.358;11.140;2023-07-13T02:21:21;19.00;99.90
11961;DHT22;6040;49.358;11.140;2023-07-13T02:23:48;19.00;99.90
11961;DHT22;6040;49.358;11.140;2023-07-13T02:26:15;18.90;99.90
11961;DHT22;6040;49.358;11.140;2023-07-13T02:28:41;18.90;99.90
11961;DHT22;6040;49.358;11.140;2023-07-13T02:31:12;18.80;99.90
11961;DHT22;6040;49.358;11.140;2023-07-13T02:33:39;18.80;99.90
11961;DHT22;6040;49.358;11.140;2023-07-13T02:36:06;18.80;99.90
11961;DHT22;6040;49.358;11.140;2023-07-13T02:38:33;18.80;99.90
11961;DHT22;6040;49.358;11.140;2023-07-13T02:41:00;18.80;99.90
11961;DHT22;6040;49.358;11.140;2023-07-13T02:43:27;18.70;99.90
11961;DHT22;6040;49.358;11.140;2023-07-13T02:45:54;18.60;99.90
11961;DHT22;6040;49.358;11.140;2023-07-13T02:48:22;18.50;99.90
11961;DHT22;6040;49.358;11.140;2023-07-13T02:50:49;18.50;99.90
11961;DHT22;6040;49.358;11.140;2023-07-13T02:53:15;18.50;99.90
11961;DHT22;6040;49.358;11.140;2023-07-13T02:55:42;18.50;99.90
11961;DHT22;6040;49.358;11.140;2023-07-13T02:58:12;18.40;99.90
11961;DHT22;6040;49.358;11.140;2023-07-13T03:00:42;18.40;99.90
11961;DHT22;6040;49.358;11.140;2023-07-13T03:03:11;18.30;99.90
11961;DHT22;6040;49.358;11.140;2023-07-13T03:05:42;18.20;99.90
11961;DHT22;6040;49.358;11.140;2023-07-13T03:08:10;18.20;99.90
11961;DHT22;6040;49.358;11.140;2023-07-13T03:10:37;18.10;99.90
11961;DHT22;6040;49.358;11.140;2023-07-13T03:13:05;18.00;99.90
11961;DHT22;6040;49.358;11.140;2023-07-13T03:15:32;17.90;99.90
11961;DHT22;6040;49.358;11.140;2023-07-13T03:17:59;17.80;99.90
11961;DHT22;6040;49.358;11.140;2023-07-13T03:20:25;17.70;99.90
11961;DHT22;6040;49.358;11.140;2023-07-13T03:22:53;17.60;99.90
11961;DHT22;6040;49.358;11.140;2023-07-13T03:25:20;17.60;99.90
11961;DHT22;6040;49.358;11.140;2023-07-13T03:27:47;17.60;99.90
11961;DHT22;6040;49.358;11.140;2023-07-13T03:30:14;17.60;99.90
11961;DHT22;6040;49.358;11.140;2023-07-13T03:32:41;17.50;99.90
11961;DHT22;6040;49.358;11.140;2023-07-13T03:35:08;17.50;99.90
11961;DHT22;6040;49.358;11.140;2023-07-13T03:37:35;17.40;99.90
11961;DHT22;6040;49.358;11.140;2023-07-13T03:40:10;17.60;99.90
11961;DHT22;6040;49.358;11.140;2023-07-13T03:42:37;17.50;99.90
11961;DHT22;6040;49.358;11.140;2023-07-13T03:45:05;17.40;99.90
11961;DHT22;6040;49.358;11.140;2023-07-13T03:47:32;17.50;99.90
11961;DHT22;6040;49.358;11.140;2023-07-13T03:49:58;17.40;99.90
11961;DHT22;6040;49.358;11.140;2023-07-13T03:52:25;17.40;99.90
11961;DHT22;6040;49.358;11.140;2023-07-13T03:54:52;17.30;99.90
11961;DHT22;6040;49.358;11.140;2023-07-13T03:57:20;17.40;99.90
11961;DHT22;6040;49.358;11.140;2023-07-13T03:59:47;17.30;99.90
11961;DHT22;6040;49.358;11.140;2023-07-13T04:02:14;17.30;99.90
11961;DHT22;6040;49.358;11.140;2023-07-13T04:04:41;17.30;99.90
11961;DHT22;6040;49.358;11.140;2023-07-13T04:07:08;17.40;99.90
11961;DHT22;6040;49.358;11.140;2023-07-13T04:09:35;17.30;99.90
11961;DHT22;6040;49.358;11.140;2023-07-13T04:12:02;17.30;99.90
11961;DHT22;6040;49.358;11.140;2023-07-13T04:14:30;17.40;99.90
11961;DHT22;6040;49.358;11.140;2023-07-13T04:16:57;17.40;99.90
11961;DHT22;6040;49.358;11.140;2023-07-13T04:19:23;17.50;99.90
11961;DHT22;6040;49.358;11.140;2023-07-13T04:21:50;17.70;99.90
11961;DHT22;6040;49.358;11.140;2023-07-13T04:24:17;17.60;99.90
11961;DHT22;6040;49.358;11.140;2023-07-13T04:26:44;17.50;99.90
11961;DHT22;6040;49.358;11.140;2023-07-13T04:29:11;17.60;99.90
11961;DHT22;6040;49.358;11.140;2023-07-13T04:31:39;17.60;99.90
11961;DHT22;6040;49.358;11.140;2023-07-13T04:34:06;17.50;99.90
11961;DHT22;6040;49.358;11.140;2023-07-13T04:36:33;17.60;99.90
11961;DHT22;6040;49.358;11.140;2023-07-13T04:39:03;17.60;99.90
11961;DHT22;6040;49.358;11.140;2023-07-13T04:41:30;17.50;99.90
11961;DHT22;6040;49.358;11.140;2023-07-13T04:43:56;17.50;99.90
11961;DHT22;6040;49.358;11.140;2023-07-13T04:46:23;17.50;99.90
11961;DHT22;6040;49.358;11.140;2023-07-13T04:48:51;17.50;99.90
11961;DHT22;6040;49.358;11.140;2023-07-13T04:51:18;17.50;99.90
11961;DHT22;6040;49.358;11.140;2023-07-13T04:53:45;17.50;99.90
11961;DHT22;6040;49.358;11.140;2023-07-13T04:56:12;17.70;99.90
11961;DHT22;6040;49.358;11.140;2023-07-13T04:58:39;17.70;99.90
11961;DHT22;6040;49.358;11.140;2023-07-13T05:01:06;17.80;99.90
11961;DHT22;6040;49.358;11.140;2023-07-13T05:03:34;17.80;99.90
11961;DHT22;6040;49.358;11.140;2023-07-13T05:06:05;18.10;99.90
11961;DHT22;6040;49.358;11.140;2023-07-13T05:08:32;18.10;99.90
11961;DHT22;6040;49.358;11.140;2023-07-13T05:10:59;18.20;99.90
11961;DHT22;6040;49.358;11.140;2023-07-13T05:13:26;18.30;99.90
11961;DHT22;6040;49.358;11.140;2023-07-13T05:15:57;18.40;99.90
11961;DHT22;6040;49.358;11.140;2023-07-13T05:18:24;18.50;99.90
11961;DHT22;6040;49.358;11.140;2023-07-13T05:20:58;18.50;99.90
11961;DHT22;6040;49.358;11.140;2023-07-13T05:23:27;18.70;99.90
11961;DHT22;6040;49.358;11.140;2023-07-13T05:25:54;18.90;99.90
11961;DHT22;6040;49.358;11.140;2023-07-13T05:28:21;19.20;99.90
11961;DHT22;6040;49.358;11.140;2023-07-13T05:30:49;19.40;99.00
11961;DHT22;6040;49.358;11.140;2023-07-13T05:33:17;19.60;99.00
11961;DHT22;6040;49.358;11.140;2023-07-13T05:35:44;19.90;98.60
11961;DHT22;6040;49.358;11.140;2023-07-13T05:38:10;20.30;98.00
11961;DHT22;6040;49.358;11.140;2023-07-13T05:40:39;20.80;97.20
11961;DHT22;6040;49.358;11.140;2023-07-13T05:43:05;21.20;96.30
11961;DHT22;6040;49.358;11.140;2023-07-13T05:45:32;21.30;95.30
11961;DHT22;6040;49.358;11.140;2023-07-13T05:47:59;21.10;94.90
11961;DHT22;6040;49.358;11.140;2023-07-13T05:50:26;21.30;95.50
11961;DHT22;6040;49.358;11.140;2023-07-13T05:52:53;21.90;95.40
11961;DHT22;6040;49.358;11.140;2023-07-13T05:55:20;22.60;94.10
11961;DHT22;6040;49.358;11.140;2023-07-13T05:57:48;22.80;93.70
11961;DHT22;6040;49.358;11.140;2023-07-13T06:00:16;23.10;92.50
11961;DHT22;6040;49.358;11.140;2023-07-13T06:02:43;23.20;92.70
11961;DHT22;6040;49.358;11.140;2023-07-13T06:05:09;23.00;92.50
11961;DHT22;6040;49.358;11.140;2023-07-13T06:07:37;22.30;92.50
11961;DHT22;6040;49.358;11.140;2023-07-13T06:10:05;22.30;92.90
11961;DHT22;6040;49.358;11.140;2023-07-13T06:12:32;22.20;93.20
11961;DHT22;6040;49.358;11.140;2023-07-13T06:15:00;22.40;93.20
11961;DHT22;6040;49.358;11.140;2023-07-13T06:17:27;22.40;93.10
11961;DHT22;6040;49.358;11.140;2023-07-13T06:19:54;22.30;93.30
11961;DHT22;6040;49.358;11.140;2023-07-13T06:22:20;22.20;92.80
11961;DHT22;6040;49.358;11.140;2023-07-13T06:24:47;23.50;93.10
11961;DHT22;6040;49.358;11.140;2023-07-13T06:27:14;21.90;93.10
11961;DHT22;6040;49.358;11.140;2023-07-13T06:29:41;22.00;93.30
11961;DHT22;6040;49.358;11.140;2023-07-13T06:32:11;22.10;93.10
11961;DHT22;6040;49.358;11.140;2023-07-13T06:34:38;22.30;93.60
11961;DHT22;6040;49.358;11.140;2023-07-13T06:37:06;23.10;93.90
11961;DHT22;6040;49.358;11.140;2023-07-13T06:39:33;23.50;92.30
11961;DHT22;6040;49.358;11.140;2023-07-13T06:41:59;23.50;91.90
11961;DHT22;6040;49.358;11.140;2023-07-13T06:44:26;23.80;92.90
11961;DHT22;6040;49.358;11.140;2023-07-13T06:46:53;23.80;91.00
11961;DHT22;6040;49.358;11.140;2023-07-13T06:49:21;23.50;91.20
11961;DHT22;6040;49.358;11.140;2023-07-13T06:51:48;23.20;91.40
11961;DHT22;6040;49.358;11.140;2023-07-13T06:54:15;23.40;92.10
11961;DHT22;6040;49.358;11.140;2023-07-13T06:56:41;23.80;91.80
11961;DHT22;6040;49.358;11.140;2023-07-13T06:59:08;23.50;91.30
11961;DHT22;6040;49.358;11.140;2023-07-13T07:01:35;23.40;90.90
11961;DHT22;6040;49.358;11.140;2023-07-13T07:04:03;23.10;91.30
11961;DHT22;6040;49.358;11.140;2023-07-13T07:06:31;23.10;91.50
11961;DHT22;6040;49.358;11.140;2023-07-13T07:08:58;23.10;91.90
11961;DHT22;6040;49.358;11.140;2023-07-13T07:11:25;23.20;92.20
11961;DHT22;6040;49.358;11.140;2023-07-13T07:13:53;23.50;91.60
11961;DHT22;6040;49.358;11.140;2023-07-13T07:16:21;23.60;91.40
11961;DHT22;6040;49.358;11.140;2023-07-13T07:18:47;23.70;92.10
11961;DHT22;6040;49.358;11.140;2023-07-13T07:21:14;24.00;91.60
11961;DHT22;6040;49.358;11.140;2023-07-13T07:23:43;24.10;91.30
11961;DHT22;6040;49.358;11.140;2023-07-13T07:26:10;24.00;90.50
11961;DHT22;6040;49.358;11.140;2023-07-13T07:28:37;24.00;91.00
11961;DHT22;6040;49.358;11.140;2023-07-13T07:31:04;24.10;90.90
11961;DHT22;6040;49.358;11.140;2023-07-13T07:33:32;24.70;91.30
11961;DHT22;6040;49.358;11.140;2023-07-13T07:35:59;25.20;90.50
11961;DHT22;6040;49.358;11.140;2023-07-13T07:38:26;25.80;88.00
11961;DHT22;6040;49.358;11.140;2023-07-13T07:40:54;25.50;88.90
11961;DHT22;6040;49.358;11.140;2023-07-13T07:43:21;25.50;86.70
11961;DHT22;6040;49.358;11.140;2023-07-13T07:45:48;25.70;86.40
11961;DHT22;6040;49.358;11.140;2023-07-13T07:48:14;25.40;85.10
11961;DHT22;6040;49.358;11.140;2023-07-13T07:50:41;25.00;85.30
11961;DHT22;6040;49.358;11.140;2023-07-13T07:53:09;25.00;87.10
11961;DHT22;6040;49.358;11.140;2023-07-13T07:55:36;25.00;87.10
11961;DHT22;6040;49.358;11.140;2023-07-13T07:58:05;25.50;88.50
11961;DHT22;6040;49.358;11.140;2023-07-13T08:00:32;26.00;86.30
11961;DHT22;6040;49.358;11.140;2023-07-13T08:03:01;26.40;84.60
11961;DHT22;6040;49.358;11.140;2023-07-13T08:05:28;26.90;84.10
11961;DHT22;6040;49.358;11.140;2023-07-13T08:07:55;27.10;82.60
11961;DHT22;6040;49.358;11.140;2023-07-13T08:10:22;26.80;80.90
11961;DHT22;6040;49.358;11.140;2023-07-13T08:12:49;27.10;81.90
11961;DHT22;6040;49.358;11.140;2023-07-13T08:15:17;27.40;80.90
11961;DHT22;6040;49.358;11.140;2023-07-13T08:17:46;27.70;81.30
11961;DHT22;6040;49.358;11.140;2023-07-13T08:20:13;27.90;79.40
11961;DHT22;6040;49.358;11.140;2023-07-13T08:22:40;28.20;78.80
11961;DHT22;6040;49.358;11.140;2023-07-13T08:25:07;28.60;77.80
11961;DHT22;6040;49.358;11.140;2023-07-13T08:27:34;28.90;76.90
11961;DHT22;6040;49.358;11.140;2023-07-13T08:30:01;29.00;76.00
11961;DHT22;6040;49.358;11.140;2023-07-13T08:32:30;29.20;80.60
11961;DHT22;6040;49.358;11.140;2023-07-13T08:34:57;29.10;72.80
11961;DHT22;6040;49.358;11.140;2023-07-13T08:37:24;28.60;72.30
11961;DHT22;6040;49.358;11.140;2023-07-13T08:39:50;28.90;72.90
11961;DHT22;6040;49.358;11.140;2023-07-13T08:42:26;29.20;75.20
11961;DHT22;6040;49.358;11.140;2023-07-13T08:45:00;29.00;71.00
11961;DHT22;6040;49.358;11.140;2023-07-13T08:47:33;28.80;69.90
11961;DHT22;6040;49.358;11.140;2023-07-13T08:50:02;29.00;69.60
11961;DHT22;6040;49.358;11.140;2023-07-13T08:52:33;29.10;67.90
11961;DHT22;6040;49.358;11.140;2023-07-13T08:55:08;29.30;69.00
11961;DHT22;6040;49.358;11.140;2023-07-13T08:57:36;29.10;67.90
11961;DHT22;6040;49.358;11.140;2023-07-13T09:00:05;28.90;66.40
11961;DHT22;6040;49.358;11.140;2023-07-13T09:02:42;29.20;64.40
11961;DHT22;6040;49.358;11.140;2023-07-13T09:05:13;29.20;64.70
11961;DHT22;6040;49.358;11.140;2023-07-13T09:08:01;29.20;65.00
11961;DHT22;6040;49.358;11.140;2023-07-13T09:10:37;29.00;66.60
11961;DHT22;6040;49.358;11.140;2023-07-13T09:13:16;28.70;65.80
11961;DHT22;6040;49.358;11.140;2023-07-13T09:15:46;28.80;65.80
11961;DHT22;6040;49.358;11.140;2023-07-13T09:18:21;28.60;66.50
11961;DHT22;6040;49.358;11.140;2023-07-13T09:20:51;28.50;64.20
11961;DHT22;6040;49.358;11.140;2023-07-13T09:23:21;28.40;65.70
11961;DHT22;6040;49.358;11.140;2023-07-13T09:25:49;28.20;64.50
11961;DHT22;6040;49.358;11.140;2023-07-13T09:28:23;28.10;67.50
11961;DHT22;6040;49.358;11.140;2023-07-13T09:30:52;28.00;65.30
11961;DHT22;6040;49.358;11.140;2023-07-13T09:33:24;27.90;66.70
11961;DHT22;6040;49.358;11.140;2023-07-13T09:35:54;27.90;67.70
11961;DHT22;6040;49.358;11.140;2023-07-13T09:38:24;27.80;67.90
11961;DHT22;6040;49.358;11.140;2023-07-13T09:41:14;27.90;66.70
11961;DHT22;6040;49.358;11.140;2023-07-13T09:44:00;27.90;66.00
11961;DHT22;6040;49.358;11.140;2023-07-13T09:46:27;28.10;70.20
11961;DHT22;6040;49.358;11.140;2023-07-13T09:48:56;27.90;64.80
11961;DHT22;6040;49.358;11.140;2023-07-13T09:51:23;28.20;66.40
11961;DHT22;6040;49.358;11.140;2023-07-13T09:53:50;28.50;68.80
11961;DHT22;6040;49.358;11.140;2023-07-13T09:56:20;28.80;65.90
11961;DHT22;6040;49.358;11.140;2023-07-13T09:58:48;28.90;67.10
11961;DHT22;6040;49.358;11.140;2023-07-13T10:01:15;29.10;67.10
11961;DHT22;6040;49.358;11.140;2023-07-13T10:03:53;29.40;64.70
11961;DHT22;6040;49.358;11.140;2023-07-13T10:06:22;29.30;63.70
11961;DHT22;6040;49.358;11.140;2023-07-13T10:08:50;29.60;65.10
11961;DHT22;6040;49.358;11.140;2023-07-13T10:11:20;29.80;67.90
11961;DHT22;6040;49.358;11.140;2023-07-13T10:13:51;29.80;61.90
11961;DHT22;6040;49.358;11.140;2023-07-13T10:16:20;29.70;62.10
11961;DHT22;6040;49.358;11.140;2023-07-13T10:18:49;29.50;62.90
11961;DHT22;6040;49.358;11.140;2023-07-13T10:21:19;29.60;62.70
11961;DHT22;6040;49.358;11.140;2023-07-13T10:23:51;29.40;64.20
11961;DHT22;6040;49.358;11.140;2023-07-13T10:26:25;29.80;64.80
11961;DHT22;6040;49.358;11.140;2023-07-13T10:28:56;29.70;62.10
11961;DHT22;6040;49.358;11.140;2023-07-13T10:31:24;30.00;63.20
11961;DHT22;6040;49.358;11.140;2023-07-13T10:33:51;30.10;60.00
11961;DHT22;6040;49.358;11.140;2023-07-13T10:36:27;30.20;60.10
11961;DHT22;6040;49.358;11.140;2023-07-13T10:38:57;30.30;60.00
11961;DHT22;6040;49.358;11.140;2023-07-13T10:41:27;30.00;58.30
11961;DHT22;6040;49.358;11.140;2023-07-13T10:43:56;29.70;61.50
11961;DHT22;6040;49.358;11.140;2023-07-13T10:46:26;29.90;59.30
11961;DHT22;6040;49.358;11.140;2023-07-13T10:48:57;29.90;61.60
11961;DHT22;6040;49.358;11.140;2023-07-13T10:51:25;30.10;62.80
11961;DHT22;6040;49.358;11.140;2023-07-13T10:56:53;30.10;60.80
11961;DHT22;6040;49.358;11.140;2023-07-13T10:59:33;29.60;60.00
11961;DHT22;6040;49.358;11.140;2023-07-13T11:02:12;29.40;61.30
11961;DHT22;6040;49.358;11.140;2023-07-13T11:04:44;29.80;62.00
11961;DHT22;6040;49.358;11.140;2023-07-13T11:07:20;29.90;58.70
11961;DHT22;6040;49.358;11.140;2023-07-13T11:09:50;29.80;61.80
11961;DHT22;6040;49.358;11.140;2023-07-13T11:12:49;29.60;57.80
11961;DHT22;6040;49.358;11.140;2023-07-13T11:15:31;29.80;60.20
11961;DHT22;6040;49.358;11.140;2023-07-13T11:18:02;30.10;59.70
11961;DHT22;6040;49.358;11.140;2023-07-13T11:20:38;30.40;60.30
11961;DHT22;6040;49.358;11.140;2023-07-13T11:23:29;30.40;59.60
11961;DHT22;6040;49.358;11.140;2023-07-13T11:25:56;30.30;57.50
11961;DHT22;6040;49.358;11.140;2023-07-13T11:28:29;30.40;58.80
11961;DHT22;6040;49.358;11.140;2023-07-13T11:31:14;30.40;59.80
11961;DHT22;6040;49.358;11.140;2023-07-13T11:34:02;30.20;58.40
11961;DHT22;6040;49.358;11.140;2023-07-13T11:36:32;30.20;57.60
11961;DHT22;6040;49.358;11.140;2023-07-13T11:39:08;30.50;57.30
11961;DHT22;6040;49.358;11.140;2023-07-13T11:41:44;30.60;58.20
11961;DHT22;6040;49.358;11.140;2023-07-13T11:44:16;30.50;56.60
11961;DHT22;6040;49.358;11.140;2023-07-13T11:46:49;30.50;58.80
11961;DHT22;6040;49.358;11.140;2023-07-13T11:49:17;30.40;59.30
11961;DHT22;6040;49.358;11.140;2023-07-13T11:51:44;30.40;59.10
11961;DHT22;6040;49.358;11.140;2023-07-13T11:54:25;30.60;59.50
11961;DHT22;6040;49.358;11.140;2023-07-13T11:56:54;30.80;58.10
11961;DHT22;6040;49.358;11.140;2023-07-13T11:59:24;30.70;60.80
11961;DHT22;6040;49.358;11.140;2023-07-13T12:01:53;31.00;56.10
11961;DHT22;6040;49.358;11.140;2023-07-13T12:04:23;31.00;57.50
11961;DHT22;6040;49.358;11.140;2023-07-13T12:06:57;30.60;55.90
11961;DHT22;6040;49.358;11.140;2023-07-13T12:09:27;30.40;57.90
11961;DHT22;6040;49.358;11.140;2023-07-13T12:11:56;30.10;54.60
11961;DHT22;6040;49.358;11.140;2023-07-13T12:14:25;29.80;57.30
11961;DHT22;6040;49.358;11.140;2023-07-13T12:16:53;29.60;59.20
11961;DHT22;6040;49.358;11.140;2023-07-13T12:19:21;30.10;58.70
11961;DHT22;6040;49.358;11.140;2023-07-13T12:21:52;30.30;58.80
11961;DHT22;6040;49.358;11.140;2023-07-13T12:24:21;30.50;61.10
11961;DHT22;6040;49.358;11.140;2023-07-13T12:26:53;30.60;57.60
11961;DHT22;6040;49.358;11.140;2023-07-13T12:29:20;30.70;56.70
11961;DHT22;6040;49.358;11.140;2023-07-13T12:31:49;30.60;57.20
11961;DHT22;6040;49.358;11.140;2023-07-13T12:34:19;30.60;57.70
11961;DHT22;6040;49.358;11.140;2023-07-13T12:36:48;30.40;57.00
11961;DHT22;6040;49.358;11.140;2023-07-13T12:39:18;30.10;56.60
11961;DHT22;6040;49.358;11.140;2023-07-13T12:41:46;30.00;56.90
11961;DHT22;6040;49.358;11.140;2023-07-13T12:44:15;30.00;57.80
11961;DHT22;6040;49.358;11.140;2023-07-13T12:46:53;30.10;59.70
11961;DHT22;6040;49.358;11.140;2023-07-13T12:49:24;30.20;58.20
11961;DHT22;6040;49.358;11.140;2023-07-13T12:51:56;30.30;57.20
11961;DHT22;6040;49.358;11.140;2023-07-13T12:54:24;30.50;56.90
11961;DHT22;6040;49.358;11.140;2023-07-13T12:56:53;30.60;57.30
11961;DHT22;6040;49.358;11.140;2023-07-13T12:59:23;30.30;54.70
11961;DHT22;6040;49.358;11.140;2023-07-13T13:01:53;29.80;56.60
11961;DHT22;6040;49.358;11.140;2023-07-13T13:04:20;29.60;57.30
11961;DHT22;6040;49.358;11.140;2023-07-13T13:06:48;29.30;57.70
11961;DHT22;6040;49.358;11.140;2023-07-13T13:09:17;29.30;56.70
11961;DHT22;6040;49.358;11.140;2023-07-13T13:11:44;29.20;58.10
11961;DHT22;6040;49.358;11.140;2023-07-13T13:14:11;29.30;58.60
11961;DHT22;6040;49.358;11.140;2023-07-13T13:16:45;29.10;59.00
11961;DHT22;6040;49.358;11.140;2023-07-13T13:19:15;29.00;61.00
11961;DHT22;6040;49.358;11.140;2023-07-13T13:21:44;29.70;60.50
11961;DHT22;6040;49.358;11.140;2023-07-13T13:24:12;29.10;60.30
11961;DHT22;6040;49.358;11.140;2023-07-13T13:26:40;28.80;59.40
11961;DHT22;6040;49.358;11.140;2023-07-13T13:29:12;28.70;62.30
11961;DHT22;6040;49.358;11.140;2023-07-13T13:31:40;28.80;59.90
11961;DHT22;6040;49.358;11.140;2023-07-13T13:34:09;29.00;60.60
11961;DHT22;6040;49.358;11.140;2023-07-13T13:36:38;28.90;61.60
11961;DHT22;6040;49.358;11.140;2023-07-13T13:39:19;28.80;60.30
11961;DHT22;6040;49.358;11.140;2023-07-13T13:41:48;28.50;61.20
11961;DHT22;6040;49.358;11.140;2023-07-13T13:44:16;28.50;61.50
11961;DHT22;6040;49.358;11.140;2023-07-13T13:46:45;28.60;61.30
11961;DHT22;6040;49.358;11.140;2023-07-13T13:49:15;28.60;61.00
11961;DHT22;6040;49.358;11.140;2023-07-13T13:51:44;28.80;60.30
11961;DHT22;6040;49.358;11.140;2023-07-13T13:54:12;28.50;60.70
11961;DHT22;6040;49.358;11.140;2023-07-13T13:56:42;28.40;60.60
11961;DHT22;6040;49.358;11.140;2023-07-13T13:59:09;28.00;60.70
11961;DHT22;6040;49.358;11.140;2023-07-13T14:01:36;28.00;62.30
11961;DHT22;6040;49.358;11.140;2023-07-13T14:04:03;27.90;61.60
11961;DHT22;6040;49.358;11.140;2023-07-13T14:06:31;27.90;62.20
11961;DHT22;6040;49.358;11.140;2023-07-13T14:08:59;28.20;63.50
11961;DHT22;6040;49.358;11.140;2023-07-13T14:11:29;28.20;61.60
11961;DHT22;6040;49.358;11.140;2023-07-13T14:13:59;28.30;61.50
11961;DHT22;6040;49.358;11.140;2023-07-13T14:16:29;28.40;60.50
11961;DHT22;6040;49.358;11.140;2023-07-13T14:18:57;28.60;60.80
11961;DHT22;6040;49.358;11.140;2023-07-13T14:21:27;28.80;62.20
11961;DHT22;6040;49.358;11.140;2023-07-13T14:23:54;28.70;59.60
11961;DHT22;6040;49.358;11.140;2023-07-13T14:26:23;28.90;62.50
11961;DHT22;6040;49.358;11.140;2023-07-13T14:28:53;28.80;60.30
11961;DHT22;6040;49.358;11.140;2023-07-13T14:31:21;28.70;59.60
11961;DHT22;6040;49.358;11.140;2023-07-13T14:33:48;28.60;60.10
11961;DHT22;6040;49.358;11.140;2023-07-13T14:36:23;28.70;60.50
11961;DHT22;6040;49.358;11.140;2023-07-13T14:38:52;28.80;60.30
11961;DHT22;6040;49.358;11.140;2023-07-13T14:41:19;28.70;60.20
11961;DHT22;6040;49.358;11.140;2023-07-13T14:43:47;28.80;60.30
11961;DHT22;6040;49.358;11.140;2023-07-13T14:46:22;28.80;60.30
11961;DHT22;6040;49.358;11.140;2023-07-13T14:48:51;28.40;59.40
11961;DHT22;6040;49.358;11.140;2023-07-13T14:51:18;28.10;61.20
11961;DHT22;6040;49.358;11.140;2023-07-13T14:53:44;28.90;62.40
11961;DHT22;6040;49.358;11.140;2023-07-13T14:56:12;27.80;64.70
11961;DHT22;6040;49.358;11.140;2023-07-13T14:58:40;27.90;62.20
11961;DHT22;6040;49.358;11.140;2023-07-13T15:01:12;28.00;61.00
11961;DHT22;6040;49.358;11.140;2023-07-13T15:03:43;27.40;62.80
11961;DHT22;6040;49.358;11.140;2023-07-13T15:06:11;28.20;60.60
11961;DHT22;6040;49.358;11.140;2023-07-13T15:08:38;27.90;61.40
11961;DHT22;6040;49.358;11.140;2023-07-13T15:11:06;27.70;60.90
11961;DHT22;6040;49.358;11.140;2023-07-13T15:13:33;27.80;60.90
11961;DHT22;6040;49.358;11.140;2023-07-13T15:16:01;27.80;60.90
11961;DHT22;6040;49.358;11.140;2023-07-13T15:18:30;27.80;60.60
11961;DHT22;6040;49.358;11.140;2023-07-13T15:20:57;27.90;60.60
11961;DHT22;6040;49.358;11.140;2023-07-13T15:23:28;27.90;60.80
11961;DHT22;6040;49.358;11.140;2023-07-13T15:25:54;27.80;60.70
11961;DHT22;6040;49.358;11.140;2023-07-13T15:28:21;27.70;59.90
11961;DHT22;6040;49.358;11.140;2023-07-13T15:30:49;27.80;60.00
11961;DHT22;6040;49.358;11.140;2023-07-13T15:33:19;27.80;59.90
11961;DHT22;6040;49.358;11.140;2023-07-13T15:35:49;27.60;58.50
11961;DHT22;6040;49.358;11.140;2023-07-13T15:38:18;27.60;60.20
11961;DHT22;6040;49.358;11.140;2023-07-13T15:40:46;27.70;60.60
11961;DHT22;6040;49.358;11.140;2023-07-13T15:43:15;27.60;60.50